createdAt,value
2022-09-05T00:13:23.303Z,95.57
2022-09-05T00:16:47.369Z,95.79
2022-09-05T00:24:25.259Z,96.37
2022-09-05T00:26:50.140Z,95.29
2022-09-05T00:31:51.554Z,96.13
2022-09-05T00:33:40.863Z,98.54
2022-09-05T00:36:34.040Z,100.00
2022-09-05T00:39:14.576Z,100.00
2022-09-05T00:41:52.637Z,100.00
2022-09-05T00:44:34.944Z,100.00
2022-09-05T00:51:11.951Z,100.00
2022-09-05T00:53:55.748Z,100.00
2022-09-05T00:57:19.562Z,100.00
2022-09-05T01:00:48.570Z,100.00
2022-09-05T01:09:16.906Z,100.00
2022-09-05T01:17:02.984Z,100.00
2022-09-05T01:20:04.582Z,100.00
2022-09-05T01:23:08.310Z,100.00
2022-09-05T01:26:00.329Z,98.13
2022-09-05T01:32:20.495Z,98.21
2022-09-05T01:39:18.527Z,97.42
2022-09-05T01:41:59.125Z,97.00
2022-09-05T01:45:04.782Z,95.80
2022-09-05T01:47:58.026Z,95.22
2022-09-05T01:51:01.416Z,93.86
2022-09-05T01:53:47.053Z,93.66
2022-09-05T01:56:43.015Z,95.40
2022-09-05T01:59:25.745Z,94.63
2022-09-05T02:02:18.837Z,96.04
2022-09-05T02:06:04.661Z,96.68
2022-09-05T02:08:53.503Z,96.44
2022-09-05T02:11:41.306Z,95.00
2022-09-05T02:15:03.189Z,94.29
2022-09-05T02:18:02.394Z,92.29
2022-09-05T02:20:57.097Z,92.97
2022-09-05T02:23:54.872Z,92.41
2022-09-05T02:26:35.818Z,92.35
2022-09-05T02:29:33.179Z,90.58
2022-09-05T02:32:18.318Z,90.31
2022-09-05T02:35:10.078Z,89.66
2022-09-05T02:47:13.018Z,91.85
2022-09-05T02:53:49.644Z,92.56
2022-09-05T02:57:24.356Z,94.38
2022-09-05T02:57:36.530Z,96.61
2022-09-05T02:59:41.692Z,98.76
2022-09-05T03:02:26.350Z,97.94
2022-09-05T03:05:09.107Z,96.56
2022-09-05T03:08:13.922Z,96.70
2022-09-05T03:11:48.957Z,95.88
2022-09-05T03:15:22.986Z,95.25
2022-09-05T03:18:55.008Z,94.85
2022-09-05T03:22:22.305Z,94.44
2022-09-05T03:25:45.715Z,94.40
2022-09-05T03:29:07.474Z,95.17
2022-09-05T03:32:35.232Z,95.79
2022-09-05T03:44:37.400Z,97.71
2022-09-05T03:57:14.030Z,100.00
2022-09-05T03:57:27.200Z,100.00
2022-09-05T03:58:55.833Z,100.00
2022-09-05T04:02:47.817Z,100.00
2022-09-05T04:08:14.138Z,100.00
2022-09-05T04:08:16.718Z,100.00
2022-09-05T04:10:32.022Z,100.00
2022-09-05T04:13:09.412Z,100.00
2022-09-05T04:15:43.723Z,99.90
2022-09-05T04:18:33.849Z,97.48
2022-09-05T04:21:15.293Z,96.90
2022-09-05T04:24:20.404Z,97.39
2022-09-05T04:53:08.378Z,96.06
2022-09-05T04:55:50.641Z,95.15
2022-09-05T05:06:03.276Z,95.16
2022-09-05T05:09:11.890Z,91.45
2022-09-05T05:17:53.835Z,89.36
2022-09-05T05:18:02.254Z,86.91
2022-09-05T05:18:06.546Z,82.54
2022-09-05T05:20:44.458Z,77.89
2022-09-05T05:23:16.926Z,75.71
2022-09-05T05:25:55.144Z,71.73
2022-09-05T05:28:41.956Z,69.74
2022-09-05T05:31:15.129Z,66.31
2022-09-05T05:33:50.475Z,65.13
2022-09-05T05:36:26.772Z,66.07
2022-09-05T05:39:07.100Z,67.32
2022-09-05T05:41:46.676Z,66.96
2022-09-05T05:44:17.637Z,67.65
2022-09-05T05:46:58.561Z,67.64
2022-09-05T05:49:49.156Z,65.71
2022-09-05T05:53:00.666Z,63.96
2022-09-05T05:55:56.626Z,63.80
2022-09-05T05:58:59.039Z,64.99
2022-09-05T06:02:23.610Z,66.39
2022-09-05T06:05:33.679Z,68.43
2022-09-05T06:12:46.319Z,69.28
2022-09-05T06:14:56.908Z,68.07
2022-09-05T06:15:48.760Z,66.09
2022-09-05T06:19:24.080Z,62.47
2022-09-05T06:23:05.546Z,58.30
2022-09-05T06:26:11.622Z,55.59
2022-09-05T06:29:00.129Z,52.70
2022-09-05T06:32:01.274Z,53.11
2022-09-05T06:35:13.375Z,51.01
2022-09-05T06:37:54.649Z,49.70
2022-09-05T06:40:42.379Z,48.65
2022-09-05T06:44:00.325Z,47.60
2022-09-05T06:46:54.981Z,45.40
2022-09-05T06:50:26.815Z,45.40
2022-09-05T06:53:45.945Z,44.26
2022-09-05T06:56:34.741Z,44.50
2022-09-05T07:00:02.757Z,44.21
2022-09-05T07:02:58.109Z,43.05
2022-09-05T07:05:42.589Z,42.64
2022-09-05T07:08:35.258Z,41.17
2022-09-05T07:11:18.257Z,43.22
2022-09-05T07:14:06.562Z,43.96
2022-09-05T07:16:45.479Z,45.58
2022-09-05T07:19:28.841Z,44.86
2022-09-05T07:22:46.976Z,46.20
2022-09-05T07:25:18.862Z,45.36
2022-09-05T07:28:28.888Z,43.08
2022-09-05T07:30:50.732Z,43.78
2022-09-05T07:33:22.132Z,43.88
2022-09-05T07:35:56.763Z,40.95
2022-09-05T07:38:48.282Z,39.06
2022-09-05T07:41:25.072Z,40.22
2022-09-05T07:44:02.628Z,38.43
2022-09-05T07:46:37.408Z,37.58
2022-09-05T07:49:11.367Z,40.04
2022-09-05T07:56:47.473Z,40.17
2022-09-05T07:57:00.664Z,37.63
2022-09-05T07:57:50.681Z,37.09
2022-09-05T08:00:26.618Z,36.83
2022-09-05T08:03:00.572Z,35.97
2022-09-05T08:05:38.515Z,34.90
2022-09-05T08:08:14.074Z,34.86
2022-09-05T08:11:22.000Z,37.14
2022-09-05T08:14:02.377Z,40.56
2022-09-05T08:16:44.424Z,39.53
2022-09-05T08:19:54.558Z,39.40
2022-09-05T08:22:32.403Z,39.66
2022-09-05T08:25:13.346Z,39.51
2022-09-05T08:28:03.443Z,42.08
2022-09-05T08:30:42.530Z,43.44
2022-09-05T08:33:18.285Z,41.88
2022-09-05T08:35:53.092Z,40.93
2022-09-05T08:38:40.434Z,42.90
2022-09-05T08:41:26.064Z,42.56
2022-09-05T08:46:35.890Z,42.85
2022-09-05T08:47:25.069Z,41.66
2022-09-05T08:50:21.787Z,38.95
2022-09-05T08:53:26.722Z,40.74
2022-09-05T08:56:22.356Z,41.22
2022-09-05T09:05:00.828Z,40.79
2022-09-05T09:07:50.613Z,40.99
2022-09-05T09:10:47.611Z,41.73
2022-09-05T09:13:39.300Z,41.56
2022-09-05T09:16:14.874Z,42.97
2022-09-05T09:19:06.884Z,43.80
2022-09-05T09:21:47.008Z,44.67
2022-09-05T09:24:36.905Z,43.27
2022-09-05T09:27:15.017Z,43.33
2022-09-05T09:29:48.405Z,41.95
2022-09-05T09:32:22.354Z,42.12
2022-09-05T09:34:56.887Z,41.99
2022-09-05T09:38:13.854Z,40.90
2022-09-05T09:41:16.990Z,41.15
2022-09-05T09:44:56.829Z,40.57
2022-09-05T09:47:56.477Z,39.00
2022-09-05T09:51:00.608Z,37.65
2022-09-05T09:53:49.692Z,38.03
2022-09-05T09:57:14.143Z,39.75
2022-09-05T10:00:05.863Z,38.85
2022-09-05T10:06:43.749Z,36.92
2022-09-05T10:10:52.851Z,36.90
2022-09-05T10:10:53.554Z,37.13
2022-09-05T10:13:25.698Z,37.31
2022-09-05T10:17:01.662Z,36.96
2022-09-05T10:20:11.025Z,35.63
2022-09-05T10:23:31.147Z,33.58
2022-09-05T10:26:42.001Z,34.72
2022-09-05T10:29:37.662Z,34.00
2022-09-05T10:35:08.324Z,32.23
2022-09-05T10:35:20.809Z,32.88
2022-09-05T10:37:59.637Z,34.12
2022-09-05T10:40:39.731Z,32.19
2022-09-05T10:43:26.292Z,32.02
2022-09-05T10:46:07.581Z,33.54
2022-09-05T10:48:52.397Z,34.18
2022-09-05T10:51:32.363Z,33.16
2022-09-05T10:54:27.247Z,34.59
2022-09-05T10:57:14.814Z,35.04
2022-09-05T11:02:23.065Z,33.95
2022-09-05T11:02:59.038Z,32.49
2022-09-05T11:05:39.468Z,32.68
2022-09-05T11:16:06.790Z,30.63
2022-09-05T11:18:57.786Z,28.77
2022-09-05T11:21:42.143Z,29.38
2022-09-05T11:24:30.564Z,27.68
2022-09-05T11:27:23.838Z,26.54
2022-09-05T11:30:01.270Z,28.32
2022-09-05T11:37:54.668Z,28.98
2022-09-05T11:40:00.370Z,28.11
2022-09-05T11:40:26.442Z,25.56
2022-09-05T11:42:44.291Z,28.14
2022-09-05T11:45:49.554Z,29.61
2022-09-05T11:48:58.643Z,29.23
2022-09-05T11:52:11.979Z,28.50
2022-09-05T12:05:49.816Z,28.67
2022-09-05T12:08:04.638Z,31.79
2022-09-05T12:10:51.648Z,32.82
2022-09-05T12:13:38.530Z,32.65
2022-09-05T12:16:26.811Z,32.99
2022-09-05T12:19:19.226Z,31.57
2022-09-05T12:22:29.923Z,33.35
2022-09-05T12:25:26.479Z,33.95
2022-09-05T12:29:27.514Z,34.48
2022-09-05T12:32:50.460Z,32.67
2022-09-05T12:36:05.829Z,33.32
2022-09-05T12:40:05.223Z,33.19
2022-09-05T12:41:33.509Z,31.93
2022-09-05T12:42:54.732Z,31.46
2022-09-05T12:45:43.649Z,31.24
2022-09-05T12:48:22.913Z,31.34
2022-09-05T12:51:00.425Z,31.56
2022-09-05T12:53:43.971Z,32.08
2022-09-05T12:58:34.640Z,32.18
2022-09-05T13:02:57.795Z,33.42
2022-09-05T13:03:13.812Z,33.23
2022-09-05T13:05:16.953Z,34.28
2022-09-05T13:07:54.551Z,33.20
2022-09-05T13:11:54.434Z,34.29
2022-09-05T13:13:26.163Z,34.33
2022-09-05T13:16:23.816Z,34.08
2022-09-05T13:18:56.990Z,33.04
2022-09-05T13:21:28.590Z,32.71
2022-09-05T13:24:09.305Z,31.23
2022-09-05T13:26:50.014Z,31.38
2022-09-05T13:29:24.486Z,32.74
2022-09-05T13:37:56.117Z,34.18
2022-09-05T13:38:13.699Z,33.77
2022-09-05T13:38:37.624Z,34.28
2022-09-05T13:40:56.631Z,33.05
2022-09-05T13:43:32.344Z,33.14
2022-09-05T13:46:12.097Z,34.50
2022-09-05T13:51:44.127Z,33.86
2022-09-05T13:54:42.583Z,33.36
2022-09-05T13:57:38.235Z,33.90
2022-09-05T14:01:08.823Z,33.58
2022-09-05T14:08:12.216Z,32.27
2022-09-05T14:11:20.474Z,32.04
2022-09-05T14:14:09.294Z,34.21
2022-09-05T14:16:54.276Z,34.29
2022-09-05T14:19:24.597Z,34.16
2022-09-05T14:21:52.042Z,33.55
2022-09-05T14:24:27.770Z,33.77
2022-09-05T14:27:13.858Z,33.52
2022-09-05T14:29:48.244Z,33.32
2022-09-05T14:37:34.720Z,33.87
2022-09-05T14:37:38.732Z,33.75
2022-09-05T14:39:18.564Z,36.79
2022-09-05T14:42:16.425Z,37.00
2022-09-05T14:45:12.667Z,37.84
2022-09-05T14:48:32.097Z,37.46
2022-09-05T14:51:28.889Z,37.46
2022-09-05T14:54:03.872Z,37.34
2022-09-05T15:00:22.832Z,37.32
2022-09-05T15:02:53.101Z,37.03
2022-09-05T15:02:56.202Z,34.92
2022-09-05T15:05:37.963Z,34.21
2022-09-05T15:08:16.280Z,34.98
2022-09-05T15:12:15.440Z,34.08
2022-09-05T15:13:54.484Z,35.75
2022-09-05T15:16:25.077Z,36.42
2022-09-05T15:18:51.974Z,37.63
2022-09-05T15:21:33.243Z,37.22
2022-09-05T15:24:17.331Z,36.22
2022-09-05T15:26:53.197Z,36.77
2022-09-05T15:29:48.843Z,37.43
2022-09-05T15:33:31.093Z,36.55
2022-09-05T15:39:44.972Z,37.01
2022-09-05T15:42:20.589Z,35.89
2022-09-05T15:45:09.653Z,35.33
2022-09-05T15:47:47.218Z,36.26
2022-09-05T15:50:22.634Z,36.80
2022-09-05T15:52:55.519Z,36.78
2022-09-05T15:55:26.297Z,35.86
2022-09-05T15:57:59.218Z,36.17
2022-09-05T16:00:42.421Z,37.28
2022-09-05T16:06:39.107Z,36.83
2022-09-05T16:10:30.785Z,37.83
2022-09-05T16:10:48.735Z,36.59
2022-09-05T16:12:30.827Z,36.81
2022-09-05T16:15:46.632Z,35.90
2022-09-05T16:23:15.839Z,36.68
2022-09-05T16:23:49.388Z,36.82
2022-09-05T16:26:26.178Z,35.65
2022-09-05T16:29:01.083Z,34.53
2022-09-05T16:31:41.842Z,36.70
2022-09-05T16:34:27.153Z,35.76
2022-09-05T16:37:09.040Z,36.68
2022-09-05T16:40:01.832Z,35.87
2022-09-05T16:42:47.108Z,36.11
2022-09-05T16:45:28.386Z,36.65
2022-09-05T16:48:16.322Z,35.71
2022-09-05T16:50:52.474Z,36.46
2022-09-05T16:53:37.160Z,36.33
2022-09-05T16:56:15.521Z,36.15
2022-09-05T16:58:49.300Z,35.88
2022-09-05T17:01:36.510Z,36.53
2022-09-05T17:04:18.456Z,35.97
2022-09-05T17:06:55.244Z,36.61
2022-09-05T17:09:25.215Z,36.53
2022-09-05T17:12:01.239Z,36.00
2022-09-05T17:14:38.920Z,35.90
2022-09-05T17:17:21.395Z,36.83
2022-09-05T17:20:09.314Z,36.27
2022-09-05T17:26:26.395Z,37.41
2022-09-05T17:29:28.160Z,37.56
2022-09-05T17:29:37.961Z,37.97
2022-09-05T17:32:00.963Z,38.16
2022-09-05T17:35:17.509Z,39.20
2022-09-05T17:38:40.927Z,39.21
2022-09-05T17:41:51.615Z,39.80
2022-09-05T17:44:27.167Z,39.83
2022-09-05T17:47:14.625Z,40.14
2022-09-05T17:49:45.354Z,42.42
2022-09-05T17:52:21.302Z,42.93
2022-09-05T17:54:53.739Z,44.18
2022-09-05T17:57:39.735Z,43.94
2022-09-05T18:01:00.301Z,43.17
2022-09-05T18:04:17.298Z,46.30
2022-09-05T18:06:59.547Z,47.64
2022-09-05T18:09:53.366Z,48.79
2022-09-05T18:13:13.520Z,44.03
2022-09-05T18:16:09.308Z,49.83
2022-09-05T18:19:29.126Z,51.61
2022-09-05T18:21:46.513Z,51.98
2022-09-05T18:24:24.851Z,52.12
2022-09-05T18:27:37.836Z,52.71
2022-09-05T18:30:10.863Z,55.53
2022-09-05T18:32:45.472Z,57.15
2022-09-05T18:35:36.509Z,60.40
2022-09-05T18:38:51.379Z,59.39
2022-09-05T18:41:22.152Z,58.98
2022-09-05T18:44:13.699Z,58.69
2022-09-05T18:46:52.644Z,59.53
2022-09-05T18:50:25.518Z,60.39
2022-09-05T18:52:23.570Z,62.71
2022-09-05T18:55:51.082Z,62.49
2022-09-05T18:58:25.770Z,62.32
2022-09-05T19:00:56.922Z,62.75
2022-09-05T19:03:36.795Z,62.84
2022-09-05T19:23:54.844Z,61.11
2022-09-05T19:36:48.760Z,64.50
2022-09-05T19:47:27.710Z,64.15
2022-09-05T19:47:45.334Z,69.55
2022-09-05T19:49:42.725Z,64.37
2022-09-05T19:52:31.332Z,64.71
2022-09-05T19:55:21.206Z,64.39
2022-09-05T20:03:51.530Z,67.82
2022-09-05T20:07:09.482Z,63.91
2022-09-05T20:09:44.714Z,65.28
2022-09-05T20:12:35.427Z,64.53
2022-09-05T20:15:24.033Z,64.56
2022-09-05T20:17:53.775Z,64.85
2022-09-05T20:20:24.735Z,64.58
2022-09-05T20:22:57.320Z,63.98
2022-09-05T20:25:36.577Z,65.17
2022-09-05T20:28:10.260Z,66.05
2022-09-05T20:30:44.463Z,67.70
2022-09-05T20:33:23.121Z,66.74
2022-09-05T20:38:39.459Z,66.59
2022-09-05T20:43:14.515Z,66.61
2022-09-05T20:43:19.749Z,68.43
2022-09-05T20:44:41.198Z,67.89
2022-09-05T20:54:10.560Z,69.93
2022-09-05T20:54:20.543Z,70.49
2022-09-05T20:54:21.347Z,69.63
2022-09-05T20:55:46.157Z,70.65
2022-09-05T20:58:20.042Z,70.96
2022-09-05T21:01:19.903Z,70.58
2022-09-05T21:03:45.437Z,70.38
2022-09-05T21:06:22.080Z,69.99
2022-09-05T21:08:50.409Z,70.44
2022-09-05T21:11:28.288Z,69.85
2022-09-05T21:14:03.416Z,70.40
2022-09-05T21:16:35.691Z,69.97
2022-09-05T21:19:03.180Z,70.49
2022-09-05T21:21:33.313Z,71.93
2022-09-05T21:24:16.570Z,73.60
2022-09-05T21:26:48.660Z,75.10
2022-09-05T21:29:30.090Z,72.96
2022-09-05T21:32:09.777Z,77.65
2022-09-05T21:34:44.834Z,77.75
2022-09-05T21:37:15.049Z,76.75
2022-09-05T21:39:59.328Z,76.45
2022-09-05T21:46:14.236Z,75.34
2022-09-05T21:47:39.037Z,74.84
2022-09-05T21:48:08.840Z,73.72
2022-09-05T21:50:42.478Z,73.27
2022-09-05T21:56:34.568Z,73.07
2022-09-05T21:59:24.362Z,74.67
2022-09-05T21:59:32.589Z,72.85
2022-09-05T22:01:56.287Z,71.64
2022-09-05T22:04:23.373Z,70.17
2022-09-05T22:06:51.583Z,72.77
2022-09-05T22:09:20.822Z,76.06
2022-09-05T22:11:48.129Z,76.56
2022-09-05T22:14:15.557Z,75.49
2022-09-05T22:16:45.193Z,77.35
2022-09-05T22:19:16.696Z,77.43
2022-09-05T22:21:43.907Z,77.91
2022-09-05T22:24:12.960Z,76.04
2022-09-05T22:27:10.945Z,73.71
2022-09-05T22:29:32.654Z,70.99
2022-09-05T22:32:00.333Z,69.43
2022-09-05T22:34:28.851Z,70.29
2022-09-05T22:36:55.751Z,70.64
2022-09-05T22:39:36.421Z,70.66
2022-09-05T22:42:07.674Z,70.96
2022-09-05T22:44:39.929Z,70.63
2022-09-05T22:47:08.139Z,73.09
2022-09-05T22:49:36.930Z,72.99
2022-09-05T22:52:05.649Z,72.46
2022-09-05T22:54:32.699Z,74.42
2022-09-05T22:56:59.567Z,75.03
2022-09-05T22:59:26.616Z,75.82
2022-09-05T23:01:53.790Z,75.63
2022-09-05T23:04:20.912Z,76.93
2022-09-05T23:06:49.275Z,76.04
2022-09-05T23:09:16.121Z,75.90
2022-09-05T23:11:42.998Z,75.50
2022-09-05T23:14:09.951Z,77.95
2022-09-05T23:16:36.878Z,77.46
2022-09-05T23:19:03.830Z,75.41
2022-09-05T23:21:30.723Z,75.72
2022-09-05T23:23:59.186Z,76.08
2022-09-05T23:26:26.155Z,77.46
2022-09-05T23:28:53.057Z,77.05
2022-09-05T23:31:20.221Z,77.56
2022-09-05T23:33:47.210Z,76.80
2022-09-05T23:36:14.923Z,76.22
2022-09-05T23:38:42.509Z,76.47
2022-09-05T23:41:14.408Z,76.97
2022-09-05T23:43:42.760Z,76.12
2022-09-05T23:46:09.941Z,76.08
2022-09-05T23:48:37.131Z,75.48
2022-09-05T23:51:06.167Z,75.55
2022-09-05T23:53:33.531Z,74.71
2022-09-05T23:56:01.003Z,74.96
2022-09-05T23:58:30.390Z,76.47
